sensor_id;sensor_type;location;lat;lon;timestamp;temperature;humidity
16767;DHT22;8501;49.926;8.404;2023-04-15T00:02:17;8.90;99.90
16767;DHT22;8501;49.926;8.404;2023-04-15T00:04:47;8.80;99.90
16767;DHT22;8501;49.926;8.404;2023-04-15T00:07:13;8.80;99.90
16767;DHT22;8501;49.926;8.404;2023-04-15T00:09:40;8.80;99.90
16767;DHT22;8501;49.926;8.404;2023-04-15T00:12:06;8.80;99.90
16767;DHT22;8501;49.926;8.404;2023-04-15T00:14:33;8.80;99.90
16767;DHT22;8501;49.926;8.404;2023-04-15T00:16:59;8.80;99.90
16767;DHT22;8501;49.926;8.404;2023-04-15T00:19:24;8.70;99.90
16767;DHT22;8501;49.926;8.404;2023-04-15T00:21:50;8.70;99.90
16767;DHT22;8501;49.926;8.404;2023-04-15T00:24:15;8.60;99.90
16767;DHT22;8501;49.926;8.404;2023-04-15T00:26:41;8.70;99.90
16767;DHT22;8501;49.926;8.404;2023-04-15T00:29:06;8.70;99.90
16767;DHT22;8501;49.926;8.404;2023-04-15T00:31:32;8.50;99.90
16767;DHT22;8501;49.926;8.404;2023-04-15T00:33:58;8.50;99.90
16767;DHT22;8501;49.926;8.404;2023-04-15T00:36:24;8.50;99.90
16767;DHT22;8501;49.926;8.404;2023-04-15T00:38:50;8.50;99.90
16767;DHT22;8501;49.926;8.404;2023-04-15T00:41:17;8.60;99.90
16767;DHT22;8501;49.926;8.404;2023-04-15T00:43:43;8.50;99.90
16767;DHT22;8501;49.926;8.404;2023-04-15T00:46:12;8.50;99.90
16767;DHT22;8501;49.926;8.404;2023-04-15T00:48:38;8.50;99.90
16767;DHT22;8501;49.926;8.404;2023-04-15T00:51:04;8.50;99.90
16767;DHT22;8501;49.926;8.404;2023-04-15T00:53:31;8.40;99.90
16767;DHT22;8501;49.926;8.404;2023-04-15T00:55:57;8.40;99.90
16767;DHT22;8501;49.926;8.404;2023-04-15T00:58:22;8.20;99.90
16767;DHT22;8501;49.926;8.404;2023-04-15T01:00:48;8.20;99.90
16767;DHT22;8501;49.926;8.404;2023-04-15T01:03:18;8.20;99.90
16767;DHT22;8501;49.926;8.404;2023-04-15T01:05:44;8.20;99.90
16767;DHT22;8501;49.926;8.404;2023-04-15T01:08:10;8.20;99.90
16767;DHT22;8501;49.926;8.404;2023-04-15T01:10:35;8.10;99.90
16767;DHT22;8501;49.926;8.404;2023-04-15T01:13:02;8.20;99.90
16767;DHT22;8501;49.926;8.404;2023-04-15T01:15:28;8.10;99.90
16767;DHT22;8501;49.926;8.404;2023-04-15T01:17:53;8.10;99.90
16767;DHT22;8501;49.926;8.404;2023-04-15T01:20:19;8.20;99.90
16767;DHT22;8501;49.926;8.404;2023-04-15T01:22:46;8.20;99.90
16767;DHT22;8501;49.926;8.404;2023-04-15T01:25:17;8.20;99.90
16767;DHT22;8501;49.926;8.404;2023-04-15T01:27:43;8.20;99.90
16767;DHT22;8501;49.926;8.404;2023-04-15T01:30:10;8.20;99.90
16767;DHT22;8501;49.926;8.404;2023-04-15T01:32:36;8.10;99.90
16767;DHT22;8501;49.926;8.404;2023-04-15T01:35:01;8.10;99.90
16767;DHT22;8501;49.926;8.404;2023-04-15T01:37:28;7.90;99.90
16767;DHT22;8501;49.926;8.404;2023-04-15T01:39:53;7.90;99.90
16767;DHT22;8501;49.926;8.404;2023-04-15T01:42:20;7.80;99.90
16767;DHT22;8501;49.926;8.404;2023-04-15T01:44:46;7.80;99.90
16767;DHT22;8501;49.926;8.404;2023-04-15T01:47:12;7.80;99.90
16767;DHT22;8501;49.926;8.404;2023-04-15T01:49:37;7.80;99.90
16767;DHT22;8501;49.926;8.404;2023-04-15T01:52:03;7.80;99.90
16767;DHT22;8501;49.926;8.404;2023-04-15T01:54:28;7.80;99.90
16767;DHT22;8501;49.926;8.404;2023-04-15T01:56:54;7.80;99.90
16767;DHT22;8501;49.926;8.404;2023-04-15T01:59:21;7.70;99.90
16767;DHT22;8501;49.926;8.404;2023-04-15T02:01:47;7.80;99.90
16767;DHT22;8501;49.926;8.404;2023-04-15T02:04:12;7.80;99.90
16767;DHT22;8501;49.926;8.404;2023-04-15T02:06:42;7.70;99.90
16767;DHT22;8501;49.926;8.404;2023-04-15T02:09:08;7.70;99.90
16767;DHT22;8501;49.926;8.404;2023-04-15T02:11:34;7.60;99.90
16767;DHT22;8501;49.926;8.404;2023-04-15T02:14:01;7.40;99.90
16767;DHT22;8501;49.926;8.404;2023-04-15T02:16:27;7.40;99.90
16767;DHT22;8501;49.926;8.404;2023-04-15T02:18:52;7.40;99.90
16767;DHT22;8501;49.926;8.404;2023-04-15T02:21:18;7.50;99.90
16767;DHT22;8501;49.926;8.404;2023-04-15T02:23:43;7.50;99.90
16767;DHT22;8501;49.926;8.404;2023-04-15T02:26:11;7.50;99.90
16767;DHT22;8501;49.926;8.404;2023-04-15T02:28:37;7.50;99.90
16767;DHT22;8501;49.926;8.404;2023-04-15T02:31:06;7.50;99.90
16767;DHT22;8501;49.926;8.404;2023-04-15T02:33:32;7.50;99.90
16767;DHT22;8501;49.926;8.404;2023-04-15T02:35:58;7.50;99.90
16767;DHT22;8501;49.926;8.404;2023-04-15T02:38:23;7.40;99.90
16767;DHT22;8501;49.926;8.404;2023-04-15T02:40:49;7.40;99.90
16767;DHT22;8501;49.926;8.404;2023-04-15T02:43:15;7.30;99.90
16767;DHT22;8501;49.926;8.404;2023-04-15T02:45:42;7.20;99.90
16767;DHT22;8501;49.926;8.404;2023-04-15T02:48:08;7.20;99.90
16767;DHT22;8501;49.926;8.404;2023-04-15T02:50:33;7.10;99.90
16767;DHT22;8501;49.926;8.404;2023-04-15T02:53:00;7.10;99.90
16767;DHT22;8501;49.926;8.404;2023-04-15T02:55:25;7.10;99.90
16767;DHT22;8501;49.926;8.404;2023-04-15T02:57:51;7.10;99.90
16767;DHT22;8501;49.926;8.404;2023-04-15T03:00:17;7.00;99.90
16767;DHT22;8501;49.926;8.404;2023-04-15T03:02:44;7.00;99.90
16767;DHT22;8501;49.926;8.404;2023-04-15T03:05:13;6.90;99.90
16767;DHT22;8501;49.926;8.404;2023-04-15T03:07:39;6.80;99.90
16767;DHT22;8501;49.926;8.404;2023-04-15T03:10:06;6.70;99.90
16767;DHT22;8501;49.926;8.404;2023-04-15T03:12:32;6.70;99.90
16767;DHT22;8501;49.926;8.404;2023-04-15T03:14:57;6.80;99.90
16767;DHT22;8501;49.926;8.404;2023-04-15T03:17:23;6.80;99.90
16767;DHT22;8501;49.926;8.404;2023-04-15T03:19:48;6.70;99.90
16767;DHT22;8501;49.926;8.404;2023-04-15T03:22:14;6.70;99.90
16767;DHT22;8501;49.926;8.404;2023-04-15T03:24:39;6.80;99.90
16767;DHT22;8501;49.926;8.404;2023-04-15T03:27:05;6.90;99.90
16767;DHT22;8501;49.926;8.404;2023-04-15T03:29:32;6.90;99.90
16767;DHT22;8501;49.926;8.404;2023-04-15T03:31:58;6.90;99.90
16767;DHT22;8501;49.926;8.404;2023-04-15T03:34:23;6.90;99.90
16767;DHT22;8501;49.926;8.404;2023-04-15T03:36:49;6.90;99.90
16767;DHT22;8501;49.926;8.404;2023-04-15T03:39:15;6.90;99.90
16767;DHT22;8501;49.926;8.404;2023-04-15T03:41:40;6.90;99.90
16767;DHT22;8501;49.926;8.404;2023-04-15T03:44:06;6.90;99.90
16767;DHT22;8501;49.926;8.404;2023-04-15T03:46:31;6.80;99.90
16767;DHT22;8501;49.926;8.404;2023-04-15T03:48:57;6.70;99.90
16767;DHT22;8501;49.926;8.404;2023-04-15T03:51:23;6.80;99.90
16767;DHT22;8501;49.926;8.404;2023-04-15T03:53:49;6.70;99.90
16767;DHT22;8501;49.926;8.404;2023-04-15T03:56:15;6.60;99.90
16767;DHT22;8501;49.926;8.404;2023-04-15T03:58:41;6.60;99.90
16767;DHT22;8501;49.926;8.404;2023-04-15T04:01:07;6.60;99.90
16767;DHT22;8501;49.926;8.404;2023-04-15T04:03:32;6.60;99.90
16767;DHT22;8501;49.926;8.404;2023-04-15T04:05:58;6.60;99.90
16767;DHT22;8501;49.926;8.404;2023-04-15T04:08:23;6.60;99.90
16767;DHT22;8501;49.926;8.404;2023-04-15T04:10:49;6.70;99.90
16767;DHT22;8501;49.926;8.404;2023-04-15T04:13:15;6.60;99.90
16767;DHT22;8501;49.926;8.404;2023-04-15T04:15:40;6.70;99.90
16767;DHT22;8501;49.926;8.404;2023-04-15T04:18:06;6.70;99.90
16767;DHT22;8501;49.926;8.404;2023-04-15T04:20:32;6.70;99.90
16767;DHT22;8501;49.926;8.404;2023-04-15T04:22:57;6.60;99.90
16767;DHT22;8501;49.926;8.404;2023-04-15T04:25:23;6.60;99.90
16767;DHT22;8501;49.926;8.404;2023-04-15T04:27:49;6.60;99.90
16767;DHT22;8501;49.926;8.404;2023-04-15T04:30:14;6.60;99.90
16767;DHT22;8501;49.926;8.404;2023-04-15T04:32:40;6.50;99.90
16767;DHT22;8501;49.926;8.404;2023-04-15T04:35:06;6.50;99.90
16767;DHT22;8501;49.926;8.404;2023-04-15T04:37:31;6.50;99.90
16767;DHT22;8501;49.926;8.404;2023-04-15T04:39:57;6.50;99.90
16767;DHT22;8501;49.926;8.404;2023-04-15T04:42:23;6.50;99.90
16767;DHT22;8501;49.926;8.404;2023-04-15T04:44:48;6.50;99.90
16767;DHT22;8501;49.926;8.404;2023-04-15T04:47:14;6.50;99.90
16767;DHT22;8501;49.926;8.404;2023-04-15T04:49:39;6.40;99.90
16767;DHT22;8501;49.926;8.404;2023-04-15T04:52:05;6.40;99.90
16767;DHT22;8501;49.926;8.404;2023-04-15T04:54:31;6.50;99.90
16767;DHT22;8501;49.926;8.404;2023-04-15T04:56:57;6.50;99.90
16767;DHT22;8501;49.926;8.404;2023-04-15T04:59:23;6.50;99.90
16767;DHT22;8501;49.926;8.404;2023-04-15T05:01:49;6.50;99.90
16767;DHT22;8501;49.926;8.404;2023-04-15T05:04:15;6.40;99.90
16767;DHT22;8501;49.926;8.404;2023-04-15T05:06:40;6.50;99.90
16767;DHT22;8501;49.926;8.404;2023-04-15T05:09:06;6.50;99.90
16767;DHT22;8501;49.926;8.404;2023-04-15T05:11:31;6.50;99.90
16767;DHT22;8501;49.926;8.404;2023-04-15T05:13:57;6.50;99.90
16767;DHT22;8501;49.926;8.404;2023-04-15T05:16:24;6.60;99.90
16767;DHT22;8501;49.926;8.404;2023-04-15T05:18:50;6.50;99.90
16767;DHT22;8501;49.926;8.404;2023-04-15T05:21:16;6.50;99.90
16767;DHT22;8501;49.926;8.404;2023-04-15T05:23:41;6.50;99.90
16767;DHT22;8501;49.926;8.404;2023-04-15T05:26:07;6.50;99.90
16767;DHT22;8501;49.926;8.404;2023-04-15T05:28:33;6.50;99.90
16767;DHT22;8501;49.926;8.404;2023-04-15T05:30:58;6.50;99.90
16767;DHT22;8501;49.926;8.404;2023-04-15T05:33:24;6.50;99.90
16767;DHT22;8501;49.926;8.404;2023-04-15T05:35:50;6.40;99.90
16767;DHT22;8501;49.926;8.404;2023-04-15T05:38:16;6.40;99.90
16767;DHT22;8501;49.926;8.404;2023-04-15T05:40:41;6.30;99.90
16767;DHT22;8501;49.926;8.404;2023-04-15T05:43:07;6.30;99.90
16767;DHT22;8501;49.926;8.404;2023-04-15T05:45:32;6.30;99.90
16767;DHT22;8501;49.926;8.404;2023-04-15T05:47:58;6.40;99.90
16767;DHT22;8501;49.926;8.404;2023-04-15T05:50:24;6.40;99.90
16767;DHT22;8501;49.926;8.404;2023-04-15T05:52:49;6.50;99.90
16767;DHT22;8501;49.926;8.404;2023-04-15T05:55:15;6.50;99.90
16767;DHT22;8501;49.926;8.404;2023-04-15T05:57:40;6.50;99.90
16767;DHT22;8501;49.926;8.404;2023-04-15T06:00:07;6.40;99.90
16767;DHT22;8501;49.926;8.404;2023-04-15T06:02:32;6.40;99.90
16767;DHT22;8501;49.926;8.404;2023-04-15T06:04:58;6.40;99.90
16767;DHT22;8501;49.926;8.404;2023-04-15T06:07:23;6.40;99.90
16767;DHT22;8501;49.926;8.404;2023-04-15T06:09:49;6.50;99.90
16767;DHT22;8501;49.926;8.404;2023-04-15T06:12:15;6.50;99.90
16767;DHT22;8501;49.926;8.404;2023-04-15T06:14:41;6.50;99.90
16767;DHT22;8501;49.926;8.404;2023-04-15T06:17:07;6.60;99.90
16767;DHT22;8501;49.926;8.404;2023-04-15T06:19:33;6.70;99.90
16767;DHT22;8501;49.926;8.404;2023-04-15T06:21:59;6.60;99.90
16767;DHT22;8501;49.926;8.404;2023-04-15T06:24:25;6.50;99.90
16767;DHT22;8501;49.926;8.404;2023-04-15T06:26:51;6.50;99.90
16767;DHT22;8501;49.926;8.404;2023-04-15T06:29:16;6.50;99.90
16767;DHT22;8501;49.926;8.404;2023-04-15T06:31:42;6.70;99.90
16767;DHT22;8501;49.926;8.404;2023-04-15T06:34:07;6.80;99.90
16767;DHT22;8501;49.926;8.404;2023-04-15T06:36:33;6.80;99.90
16767;DHT22;8501;49.926;8.404;2023-04-15T06:38:58;6.90;99.90
16767;DHT22;8501;49.926;8.404;2023-04-15T06:41:24;6.90;99.90
16767;DHT22;8501;49.926;8.404;2023-04-15T06:43:50;6.90;99.90
16767;DHT22;8501;49.926;8.404;2023-04-15T06:46:15;6.90;99.90
16767;DHT22;8501;49.926;8.404;2023-04-15T06:48:41;6.90;99.90
16767;DHT22;8501;49.926;8.404;2023-04-15T06:51:07;7.00;99.90
16767;DHT22;8501;49.926;8.404;2023-04-15T06:53:32;7.00;99.90
16767;DHT22;8501;49.926;8.404;2023-04-15T06:55:58;7.10;99.90
16767;DHT22;8501;49.926;8.404;2023-04-15T06:58:23;7.20;99.90
16767;DHT22;8501;49.926;8.404;2023-04-15T07:00:49;7.30;99.90
16767;DHT22;8501;49.926;8.404;2023-04-15T07:03:15;7.40;99.90
16767;DHT22;8501;49.926;8.404;2023-04-15T07:05:41;7.50;99.90
16767;DHT22;8501;49.926;8.404;2023-04-15T07:08:06;7.50;99.90
16767;DHT22;8501;49.926;8.404;2023-04-15T07:10:35;7.60;99.90
16767;DHT22;8501;49.926;8.404;2023-04-15T07:13:01;7.70;99.90
16767;DHT22;8501;49.926;8.404;2023-04-15T07:15:27;7.90;99.90
16767;DHT22;8501;49.926;8.404;2023-04-15T07:17:52;8.00;99.90
16767;DHT22;8501;49.926;8.404;2023-04-15T07:20:18;8.00;99.90
16767;DHT22;8501;49.926;8.404;2023-04-15T07:22:44;8.30;99.90
16767;DHT22;8501;49.926;8.404;2023-04-15T07:25:09;8.20;99.90
16767;DHT22;8501;49.926;8.404;2023-04-15T07:27:35;8.30;99.90
16767;DHT22;8501;49.926;8.404;2023-04-15T07:30:01;8.50;99.90
16767;DHT22;8501;49.926;8.404;2023-04-15T07:32:27;8.50;99.90
16767;DHT22;8501;49.926;8.404;2023-04-15T07:34:55;8.60;99.90
16767;DHT22;8501;49.926;8.404;2023-04-15T07:37:21;8.70;99.90
16767;DHT22;8501;49.926;8.404;2023-04-15T07:39:46;8.80;99.90
16767;DHT22;8501;49.926;8.404;2023-04-15T07:42:15;8.90;99.90
16767;DHT22;8501;49.926;8.404;2023-04-15T07:44:41;8.90;99.90
16767;DHT22;8501;49.926;8.404;2023-04-15T07:47:07;9.00;99.90
16767;DHT22;8501;49.926;8.404;2023-04-15T07:49:32;9.10;99.90
16767;DHT22;8501;49.926;8.404;2023-04-15T07:51:58;9.20;99.90
16767;DHT22;8501;49.926;8.404;2023-04-15T07:54:24;9.20;99.90
16767;DHT22;8501;49.926;8.404;2023-04-15T07:56:50;9.30;99.90
16767;DHT22;8501;49.926;8.404;2023-04-15T07:59:16;9.40;99.90
16767;DHT22;8501;49.926;8.404;2023-04-15T08:01:42;9.50;99.90
16767;DHT22;8501;49.926;8.404;2023-04-15T08:04:08;9.50;99.90
16767;DHT22;8501;49.926;8.404;2023-04-15T08:06:34;9.60;99.90
16767;DHT22;8501;49.926;8.404;2023-04-15T08:09:01;9.70;99.90
16767;DHT22;8501;49.926;8.404;2023-04-15T08:11:26;9.70;99.90
16767;DHT22;8501;49.926;8.404;2023-04-15T08:13:52;9.80;99.90
16767;DHT22;8501;49.926;8.404;2023-04-15T08:16:25;9.80;99.90
16767;DHT22;8501;49.926;8.404;2023-04-15T08:18:54;9.90;99.90
16767;DHT22;8501;49.926;8.404;2023-04-15T08:21:20;10.00;99.90
16767;DHT22;8501;49.926;8.404;2023-04-15T08:23:47;10.10;99.90
16767;DHT22;8501;49.926;8.404;2023-04-15T08:26:14;10.20;99.90
16767;DHT22;8501;49.926;8.404;2023-04-15T08:28:41;10.20;99.90
16767;DHT22;8501;49.926;8.404;2023-04-15T08:31:07;10.40;99.90
16767;DHT22;8501;49.926;8.404;2023-04-15T08:33:33;10.50;99.90
16767;DHT22;8501;49.926;8.404;2023-04-15T08:35:59;10.50;99.90
16767;DHT22;8501;49.926;8.404;2023-04-15T08:38:24;10.60;99.90
16767;DHT22;8501;49.926;8.404;2023-04-15T08:40:50;10.60;99.90
16767;DHT22;8501;49.926;8.404;2023-04-15T08:53:30;10.90;99.90
16767;DHT22;8501;49.926;8.404;2023-04-15T08:55:56;11.10;99.90
16767;DHT22;8501;49.926;8.404;2023-04-15T08:58:24;11.10;99.90
16767;DHT22;8501;49.926;8.404;2023-04-15T09:00:50;11.20;99.90
16767;DHT22;8501;49.926;8.404;2023-04-15T09:03:16;11.20;99.90
16767;DHT22;8501;49.926;8.404;2023-04-15T09:05:42;11.30;99.90
16767;DHT22;8501;49.926;8.404;2023-04-15T09:08:08;11.40;99.90
16767;DHT22;8501;49.926;8.404;2023-04-15T09:10:34;11.50;99.90
16767;DHT22;8501;49.926;8.404;2023-04-15T09:13:00;11.60;99.90
16767;DHT22;8501;49.926;8.404;2023-04-15T09:15:27;11.70;99.90
16767;DHT22;8501;49.926;8.404;2023-04-15T09:17:54;11.80;99.90
16767;DHT22;8501;49.926;8.404;2023-04-15T09:20:20;11.90;99.90
16767;DHT22;8501;49.926;8.404;2023-04-15T09:22:47;12.00;99.90
16767;DHT22;8501;49.926;8.404;2023-04-15T09:27:53;12.00;99.90
16767;DHT22;8501;49.926;8.404;2023-04-15T09:30:19;12.10;99.90
16767;DHT22;8501;49.926;8.404;2023-04-15T09:32:56;12.10;99.90
16767;DHT22;8501;49.926;8.404;2023-04-15T09:35:23;12.20;99.90
16767;DHT22;8501;49.926;8.404;2023-04-15T09:37:49;12.20;99.90
16767;DHT22;8501;49.926;8.404;2023-04-15T09:40:30;12.10;99.90
16767;DHT22;8501;49.926;8.404;2023-04-15T09:42:57;12.20;99.90
16767;DHT22;8501;49.926;8.404;2023-04-15T09:45:23;12.20;99.90
16767;DHT22;8501;49.926;8.404;2023-04-15T09:47:49;12.30;99.90
16767;DHT22;8501;49.926;8.404;2023-04-15T09:50:20;12.30;99.90
16767;DHT22;8501;49.926;8.404;2023-04-15T09:52:46;12.40;99.90
16767;DHT22;8501;49.926;8.404;2023-04-15T09:55:13;12.40;99.90
16767;DHT22;8501;49.926;8.404;2023-04-15T09:57:39;12.50;99.90
16767;DHT22;8501;49.926;8.404;2023-04-15T10:00:09;12.60;99.90
16767;DHT22;8501;49.926;8.404;2023-04-15T10:02:36;12.60;99.90
16767;DHT22;8501;49.926;8.404;2023-04-15T10:05:02;12.60;99.90
16767;DHT22;8501;49.926;8.404;2023-04-15T10:07:28;12.70;99.90
16767;DHT22;8501;49.926;8.404;2023-04-15T10:09:54;12.70;99.90
16767;DHT22;8501;49.926;8.404;2023-04-15T10:12:21;12.70;99.90
16767;DHT22;8501;49.926;8.404;2023-04-15T10:14:51;12.80;99.90
16767;DHT22;8501;49.926;8.404;2023-04-15T10:17:21;12.70;99.90
16767;DHT22;8501;49.926;8.404;2023-04-15T10:19:47;12.80;99.90
16767;DHT22;8501;49.926;8.404;2023-04-15T10:22:14;12.80;99.90
16767;DHT22;8501;49.926;8.404;2023-04-15T10:24:40;12.80;99.90
16767;DHT22;8501;49.926;8.404;2023-04-15T10:27:07;12.90;99.90
16767;DHT22;8501;49.926;8.404;2023-04-15T10:29:33;13.00;99.90
16767;DHT22;8501;49.926;8.404;2023-04-15T10:32:00;13.00;99.90
16767;DHT22;8501;49.926;8.404;2023-04-15T10:34:26;13.10;99.90
16767;DHT22;8501;49.926;8.404;2023-04-15T10:37:11;13.20;99.90
16767;DHT22;8501;49.926;8.404;2023-04-15T10:39:38;13.30;99.90
16767;DHT22;8501;49.926;8.404;2023-04-15T10:42:11;13.30;99.90
16767;DHT22;8501;49.926;8.404;2023-04-15T10:44:48;13.30;99.90
16767;DHT22;8501;49.926;8.404;2023-04-15T10:47:17;13.30;99.90
16767;DHT22;8501;49.926;8.404;2023-04-15T10:49:57;13.30;99.90
16767;DHT22;8501;49.926;8.404;2023-04-15T10:52:25;13.30;99.90
16767;DHT22;8501;49.926;8.404;2023-04-15T10:55:13;13.40;99.90
16767;DHT22;8501;49.926;8.404;2023-04-15T10:57:42;13.40;99.90
16767;DHT22;8501;49.926;8.404;2023-04-15T11:05:04;13.50;99.90
16767;DHT22;8501;49.926;8.404;2023-04-15T11:07:50;13.60;99.90
16767;DHT22;8501;49.926;8.404;2023-04-15T11:12:58;13.50;99.90
16767;DHT22;8501;49.926;8.404;2023-04-15T11:15:41;13.50;99.90
16767;DHT22;8501;49.926;8.404;2023-04-15T11:18:17;13.40;99.90
16767;DHT22;8501;49.926;8.404;2023-04-15T11:20:54;13.40;99.90
16767;DHT22;8501;49.926;8.404;2023-04-15T11:23:38;13.40;99.90
16767;DHT22;8501;49.926;8.404;2023-04-15T11:26:06;13.40;99.90
16767;DHT22;8501;49.926;8.404;2023-04-15T11:28:34;13.40;99.90
16767;DHT22;8501;49.926;8.404;2023-04-15T11:31:27;13.40;99.90
16767;DHT22;8501;49.926;8.404;2023-04-15T11:33:59;13.50;99.90
16767;DHT22;8501;49.926;8.404;2023-04-15T11:36:30;13.50;99.90
16767;DHT22;8501;49.926;8.404;2023-04-15T11:38:59;13.60;99.90
16767;DHT22;8501;49.926;8.404;2023-04-15T11:41:26;13.70;99.90
16767;DHT22;8501;49.926;8.404;2023-04-15T11:43:51;13.70;99.90
16767;DHT22;8501;49.926;8.404;2023-04-15T11:46:17;13.70;99.90
16767;DHT22;8501;49.926;8.404;2023-04-15T11:48:44;13.80;99.90
16767;DHT22;8501;49.926;8.404;2023-04-15T11:51:11;13.90;99.90
16767;DHT22;8501;49.926;8.404;2023-04-15T11:53:48;14.00;99.90
16767;DHT22;8501;49.926;8.404;2023-04-15T11:56:22;14.00;99.90
16767;DHT22;8501;49.926;8.404;2023-04-15T11:58:52;14.00;99.90
16767;DHT22;8501;49.926;8.404;2023-04-15T12:01:17;14.10;99.90
16767;DHT22;8501;49.926;8.404;2023-04-15T12:03:49;14.10;99.90
16767;DHT22;8501;49.926;8.404;2023-04-15T12:06:18;14.10;99.90
16767;DHT22;8501;49.926;8.404;2023-04-15T12:08:57;14.20;99.90
16767;DHT22;8501;49.926;8.404;2023-04-15T12:16:48;14.20;99.90
16767;DHT22;8501;49.926;8.404;2023-04-15T12:19:18;14.20;99.90
16767;DHT22;8501;49.926;8.404;2023-04-15T12:21:48;14.20;99.90
16767;DHT22;8501;49.926;8.404;2023-04-15T12:44:46;14.20;99.90
16767;DHT22;8501;49.926;8.404;2023-04-15T12:57:42;14.10;99.90
16767;DHT22;8501;49.926;8.404;2023-04-15T13:00:20;14.10;99.90
16767;DHT22;8501;49.926;8.404;2023-04-15T13:02:46;14.20;99.90
16767;DHT22;8501;49.926;8.404;2023-04-15T13:05:12;14.20;99.90
16767;DHT22;8501;49.926;8.404;2023-04-15T13:07:43;14.30;99.90
16767;DHT22;8501;49.926;8.404;2023-04-15T13:10:09;14.40;99.90
16767;DHT22;8501;49.926;8.404;2023-04-15T13:12:35;14.40;99.90
16767;DHT22;8501;49.926;8.404;2023-04-15T13:15:02;14.40;99.90
16767;DHT22;8501;49.926;8.404;2023-04-15T13:17:28;14.30;99.90
16767;DHT22;8501;49.926;8.404;2023-04-15T13:40:23;13.60;99.90
16767;DHT22;8501;49.926;8.404;2023-04-15T13:42:50;13.50;99.90
16767;DHT22;8501;49.926;8.404;2023-04-15T13:45:17;13.50;99.90
16767;DHT22;8501;49.926;8.404;2023-04-15T13:47:43;13.50;99.90
16767;DHT22;8501;49.926;8.404;2023-04-15T13:50:09;13.40;99.90
16767;DHT22;8501;49.926;8.404;2023-04-15T13:52:34;13.40;99.90
16767;DHT22;8501;49.926;8.404;2023-04-15T13:55:03;13.40;99.90
16767;DHT22;8501;49.926;8.404;2023-04-15T13:57:28;13.30;99.90
16767;DHT22;8501;49.926;8.404;2023-04-15T13:59:55;13.30;99.90
16767;DHT22;8501;49.926;8.404;2023-04-15T14:02:22;13.20;99.90
16767;DHT22;8501;49.926;8.404;2023-04-15T14:04:47;13.20;99.90
16767;DHT22;8501;49.926;8.404;2023-04-15T14:07:13;13.20;99.90
16767;DHT22;8501;49.926;8.404;2023-04-15T14:09:39;13.10;99.90
16767;DHT22;8501;49.926;8.404;2023-04-15T14:12:04;13.10;99.90
16767;DHT22;8501;49.926;8.404;2023-04-15T14:14:30;13.10;99.90
16767;DHT22;8501;49.926;8.404;2023-04-15T14:16:56;13.00;99.90
16767;DHT22;8501;49.926;8.404;2023-04-15T14:19:23;13.10;99.90
16767;DHT22;8501;49.926;8.404;2023-04-15T14:21:48;13.10;99.90
16767;DHT22;8501;49.926;8.404;2023-04-15T14:24:14;13.10;99.90
16767;DHT22;8501;49.926;8.404;2023-04-15T14:26:39;13.10;99.90
16767;DHT22;8501;49.926;8.404;2023-04-15T14:29:05;13.10;99.90
16767;DHT22;8501;49.926;8.404;2023-04-15T14:31:30;13.00;99.90
16767;DHT22;8501;49.926;8.404;2023-04-15T14:33:56;12.90;99.90
16767;DHT22;8501;49.926;8.404;2023-04-15T14:36:22;12.80;99.90
16767;DHT22;8501;49.926;8.404;2023-04-15T14:38:48;12.80;99.90
16767;DHT22;8501;49.926;8.404;2023-04-15T14:41:13;12.80;99.90
16767;DHT22;8501;49.926;8.404;2023-04-15T14:43:39;12.80;99.90
16767;DHT22;8501;49.926;8.404;2023-04-15T14:46:04;12.70;99.90
16767;DHT22;8501;49.926;8.404;2023-04-15T14:48:30;12.70;99.90
16767;DHT22;8501;49.926;8.404;2023-04-15T14:50:56;12.70;99.90
16767;DHT22;8501;49.926;8.404;2023-04-15T14:53:22;12.60;99.90
16767;DHT22;8501;49.926;8.404;2023-04-15T14:55:48;12.60;99.90
16767;DHT22;8501;49.926;8.404;2023-04-15T14:58:14;12.60;99.90
16767;DHT22;8501;49.926;8.404;2023-04-15T15:00:40;12.60;99.90
16767;DHT22;8501;49.926;8.404;2023-04-15T15:03:09;12.60;99.90
16767;DHT22;8501;49.926;8.404;2023-04-15T15:05:40;12.50;99.90
16767;DHT22;8501;49.926;8.404;2023-04-15T15:08:07;12.50;99.90
16767;DHT22;8501;49.926;8.404;2023-04-15T15:10:34;12.50;99.90
16767;DHT22;8501;49.926;8.404;2023-04-15T15:13:01;12.40;99.90
16767;DHT22;8501;49.926;8.404;2023-04-15T15:15:26;12.50;99.90
16767;DHT22;8501;49.926;8.404;2023-04-15T15:17:52;12.50;99.90
16767;DHT22;8501;49.926;8.404;2023-04-15T15:20:18;12.40;99.90
16767;DHT22;8501;49.926;8.404;2023-04-15T15:22:44;12.40;99.90
16767;DHT22;8501;49.926;8.404;2023-04-15T15:25:09;12.40;99.90
16767;DHT22;8501;49.926;8.404;2023-04-15T15:27:35;12.30;99.90
16767;DHT22;8501;49.926;8.404;2023-04-15T15:30:02;12.40;99.90
16767;DHT22;8501;49.926;8.404;2023-04-15T15:32:27;12.30;99.90
16767;DHT22;8501;49.926;8.404;2023-04-15T15:34:53;12.20;99.90
16767;DHT22;8501;49.926;8.404;2023-04-15T15:37:19;12.30;99.90
16767;DHT22;8501;49.926;8.404;2023-04-15T15:39:45;12.10;99.90
16767;DHT22;8501;49.926;8.404;2023-04-15T15:42:10;12.10;99.90
16767;DHT22;8501;49.926;8.404;2023-04-15T15:44:36;12.10;99.90
16767;DHT22;8501;49.926;8.404;2023-04-15T15:47:06;12.10;99.90
16767;DHT22;8501;49.926;8.404;2023-04-15T15:49:31;12.10;99.90
16767;DHT22;8501;49.926;8.404;2023-04-15T15:51:58;12.10;99.90
16767;DHT22;8501;49.926;8.404;2023-04-15T15:54:24;12.00;99.90
16767;DHT22;8501;49.926;8.404;2023-04-15T15:56:50;12.00;99.90
16767;DHT22;8501;49.926;8.404;2023-04-15T15:59:15;11.90;99.90
16767;DHT22;8501;49.926;8.404;2023-04-15T16:01:42;11.80;99.90
16767;DHT22;8501;49.926;8.404;2023-04-15T16:04:08;11.90;99.90
16767;DHT22;8501;49.926;8.404;2023-04-15T16:06:34;11.90;99.90
16767;DHT22;8501;49.926;8.404;2023-04-15T16:09:00;11.80;99.90
16767;DHT22;8501;49.926;8.404;2023-04-15T16:11:26;11.80;99.90
16767;DHT22;8501;49.926;8.404;2023-04-15T16:13:52;11.80;99.90
16767;DHT22;8501;49.926;8.404;2023-04-15T16:16:17;11.80;99.90
16767;DHT22;8501;49.926;8.404;2023-04-15T16:18:43;11.80;99.90
16767;DHT22;8501;49.926;8.404;2023-04-15T16:21:08;11.80;99.90
16767;DHT22;8501;49.926;8.404;2023-04-15T16:23:35;11.60;99.90
16767;DHT22;8501;49.926;8.404;2023-04-15T16:26:01;11.80;99.90
16767;DHT22;8501;49.926;8.404;2023-04-15T16:28:26;11.70;99.90
16767;DHT22;8501;49.926;8.404;2023-04-15T16:30:52;11.80;99.90
16767;DHT22;8501;49.926;8.404;2023-04-15T16:33:18;11.80;99.90
16767;DHT22;8501;49.926;8.404;2023-04-15T16:35:44;11.80;99.90
16767;DHT22;8501;49.926;8.404;2023-04-15T16:38:09;11.70;99.90
16767;DHT22;8501;49.926;8.404;2023-04-15T16:40:36;11.70;99.90
16767;DHT22;8501;49.926;8.404;2023-04-15T16:43:02;11.60;99.90
16767;DHT22;8501;49.926;8.404;2023-04-15T16:45:28;11.50;99.90
16767;DHT22;8501;49.926;8.404;2023-04-15T16:47:54;11.50;99.90
16767;DHT22;8501;49.926;8.404;2023-04-15T16:50:21;11.50;99.90
16767;DHT22;8501;49.926;8.404;2023-04-15T16:52:46;11.60;99.90
16767;DHT22;8501;49.926;8.404;2023-04-15T16:55:12;11.50;99.90
16767;DHT22;8501;49.926;8.404;2023-04-15T16:57:37;11.50;99.90
16767;DHT22;8501;49.926;8.404;2023-04-15T17:00:03;11.50;99.90
16767;DHT22;8501;49.926;8.404;2023-04-15T17:02:29;11.50;99.90
16767;DHT22;8501;49.926;8.404;2023-04-15T17:04:55;11.50;99.90
16767;DHT22;8501;49.926;8.404;2023-04-15T17:07:20;11.50;99.90
16767;DHT22;8501;49.926;8.404;2023-04-15T17:09:46;11.40;99.90